createdAt,value
2022-12-26T00:01:53.584Z,11.99
2022-12-26T00:04:51.844Z,11.99
2022-12-26T00:07:09.924Z,12.16
2022-12-26T00:09:38.064Z,12.22
2022-12-26T00:12:06.141Z,12.23
2022-12-26T00:14:34.314Z,12.18
2022-12-26T00:17:02.155Z,11.87
2022-12-26T00:19:30.303Z,11.82
2022-12-26T00:21:58.117Z,11.65
2022-12-26T00:24:26.297Z,11.56
2022-12-26T00:26:54.076Z,11.84
2022-12-26T00:29:23.004Z,11.72
2022-12-26T00:31:50.924Z,11.79
2022-12-26T00:34:20.131Z,12.01
2022-12-26T00:36:50.124Z,12.03
2022-12-26T00:39:18.227Z,11.86
2022-12-26T00:41:45.972Z,11.59
2022-12-26T00:44:14.023Z,11.86
2022-12-26T00:46:41.921Z,11.85
2022-12-26T00:49:12.177Z,11.92
2022-12-26T00:51:40.172Z,11.87
2022-12-26T00:54:08.298Z,11.66
2022-12-26T00:56:36.014Z,11.88
2022-12-26T00:59:04.119Z,11.83
2022-12-26T01:01:32.720Z,11.85
2022-12-26T01:04:02.248Z,11.72
2022-12-26T01:06:31.024Z,11.47
2022-12-26T01:08:59.935Z,11.60
2022-12-26T01:11:43.106Z,11.86
2022-12-26T01:14:18.507Z,11.86
2022-12-26T01:16:47.827Z,11.95
2022-12-26T01:19:17.264Z,11.89
2022-12-26T01:21:45.066Z,11.89
2022-12-26T01:24:14.614Z,11.80
2022-12-26T01:26:42.465Z,12.01
2022-12-26T01:29:10.661Z,11.77
2022-12-26T01:31:38.537Z,11.77
2022-12-26T01:34:06.668Z,12.01
2022-12-26T01:36:34.546Z,12.23
2022-12-26T01:39:02.637Z,12.02
2022-12-26T01:41:32.458Z,12.11
2022-12-26T01:44:06.580Z,11.88
2022-12-26T01:46:43.036Z,11.71
2022-12-26T01:49:52.722Z,11.78
2022-12-26T01:52:44.883Z,12.02
2022-12-26T01:55:17.842Z,12.13
2022-12-26T01:57:50.446Z,11.92
2022-12-26T02:00:18.753Z,11.97
2022-12-26T02:03:05.497Z,11.83
2022-12-26T02:05:34.413Z,12.04
2022-12-26T02:08:26.918Z,11.99
2022-12-26T02:11:05.419Z,12.05
2022-12-26T02:13:36.117Z,11.97
2022-12-26T02:16:07.152Z,12.09
2022-12-26T02:18:35.356Z,12.02
2022-12-26T02:21:28.627Z,11.94
2022-12-26T02:24:16.076Z,12.16
2022-12-26T02:27:02.705Z,12.01
2022-12-26T02:30:05.312Z,11.99
2022-12-26T02:32:47.109Z,12.10
2022-12-26T02:35:17.478Z,12.01
2022-12-26T02:38:08.754Z,12.06
2022-12-26T02:40:49.335Z,12.02
2022-12-26T02:43:33.971Z,12.03
2022-12-26T02:46:37.710Z,11.96
2022-12-26T02:49:21.966Z,11.84
2022-12-26T02:52:34.637Z,11.99
2022-12-26T02:55:33.899Z,11.96
2022-12-26T02:58:40.589Z,11.64
2022-12-26T03:01:49.710Z,11.58
2022-12-26T03:04:41.539Z,11.44
2022-12-26T03:07:42.597Z,11.31
2022-12-26T03:10:38.742Z,11.47
2022-12-26T03:13:17.362Z,11.41
2022-12-26T03:16:09.666Z,11.66
2022-12-26T03:18:57.984Z,11.47
2022-12-26T03:21:34.184Z,11.52
2022-12-26T03:24:02.452Z,11.60
2022-12-26T03:26:41.399Z,11.70
2022-12-26T03:29:32.135Z,11.69
2022-12-26T03:32:03.434Z,11.82
2022-12-26T03:34:31.724Z,11.78
2022-12-26T03:37:50.343Z,11.71
2022-12-26T03:41:22.464Z,11.85
2022-12-26T03:44:45.163Z,11.88
2022-12-26T03:47:48.254Z,11.93
2022-12-26T03:50:50.373Z,12.09
2022-12-26T03:53:44.282Z,11.96
2022-12-26T03:56:40.702Z,11.94
2022-12-26T03:59:35.235Z,11.52
2022-12-26T04:02:26.698Z,11.57
2022-12-26T04:05:16.263Z,11.36
2022-12-26T04:08:18.579Z,11.56
2022-12-26T04:11:12.215Z,11.59
2022-12-26T04:14:10.999Z,11.78
2022-12-26T04:17:19.742Z,11.64
2022-12-26T04:20:02.830Z,11.34
2022-12-26T04:23:04.027Z,11.67
2022-12-26T04:26:18.485Z,11.37
2022-12-26T04:29:06.554Z,11.52
2022-12-26T04:32:01.614Z,11.43
2022-12-26T04:35:33.655Z,11.68
2022-12-26T04:38:22.295Z,11.73
2022-12-26T04:41:14.825Z,11.75
2022-12-26T04:44:03.205Z,11.67
2022-12-26T04:46:35.260Z,11.75
2022-12-26T04:49:25.447Z,11.52
2022-12-26T04:51:56.623Z,11.61
2022-12-26T04:54:25.382Z,11.49
2022-12-26T04:56:55.124Z,11.37
2022-12-26T04:59:24.177Z,11.54
2022-12-26T05:02:12.157Z,11.61
2022-12-26T05:04:58.925Z,11.51
2022-12-26T05:07:52.336Z,11.87
2022-12-26T05:10:23.017Z,11.81
2022-12-26T05:12:51.835Z,11.78
2022-12-26T05:15:20.153Z,11.82
2022-12-26T05:18:06.965Z,11.91
2022-12-26T05:20:53.353Z,11.88
2022-12-26T05:23:44.033Z,11.84
2022-12-26T05:26:39.361Z,11.86
2022-12-26T05:29:07.663Z,11.94
2022-12-26T05:31:37.121Z,11.77
2022-12-26T05:34:07.904Z,11.79
2022-12-26T05:36:42.600Z,11.79
2022-12-26T05:39:10.777Z,11.73
2022-12-26T05:41:39.130Z,11.72
2022-12-26T05:44:08.290Z,11.63
2022-12-26T05:46:36.817Z,11.76
2022-12-26T05:49:06.126Z,11.74
2022-12-26T05:51:35.259Z,11.82
2022-12-26T05:54:03.953Z,11.81
2022-12-26T05:56:31.634Z,11.83
2022-12-26T05:59:01.419Z,11.78
2022-12-26T06:01:30.570Z,11.63
2022-12-26T06:04:00.844Z,11.69
2022-12-26T06:06:29.254Z,11.57
2022-12-26T06:08:57.651Z,11.71
2022-12-26T06:11:26.974Z,11.56
2022-12-26T06:13:56.018Z,11.77
2022-12-26T06:16:24.180Z,11.78
2022-12-26T06:18:55.475Z,11.63
2022-12-26T06:21:24.145Z,11.74
2022-12-26T06:23:52.364Z,11.53
2022-12-26T06:26:20.233Z,11.65
2022-12-26T06:28:48.579Z,11.61
2022-12-26T06:31:21.092Z,11.77
2022-12-26T06:33:58.447Z,11.68
2022-12-26T06:36:27.830Z,11.72
2022-12-26T06:38:57.892Z,11.66
2022-12-26T06:41:26.035Z,11.76
2022-12-26T06:43:56.165Z,11.69
2022-12-26T06:46:25.475Z,11.74
2022-12-26T06:48:53.816Z,11.58
2022-12-26T06:51:24.666Z,11.70
2022-12-26T06:53:53.557Z,11.67
2022-12-26T06:56:24.908Z,11.68
2022-12-26T06:59:04.851Z,11.72
2022-12-26T07:01:35.062Z,11.74
2022-12-26T07:04:04.826Z,11.74
2022-12-26T07:06:38.236Z,11.68
2022-12-26T07:09:08.189Z,11.55
2022-12-26T07:11:39.393Z,11.58
2022-12-26T07:14:08.838Z,11.83
2022-12-26T07:16:39.312Z,11.83
2022-12-26T07:19:07.896Z,11.78
2022-12-26T07:21:40.480Z,11.65
2022-12-26T07:24:22.618Z,11.67
2022-12-26T07:26:50.802Z,11.65
2022-12-26T07:29:20.206Z,11.61
2022-12-26T07:31:48.357Z,11.66
2022-12-26T07:34:16.565Z,11.84
2022-12-26T07:36:44.494Z,11.76
2022-12-26T07:39:14.581Z,11.65
2022-12-26T07:41:57.695Z,11.52
2022-12-26T07:44:29.354Z,11.74
2022-12-26T07:46:57.591Z,11.71
2022-12-26T07:49:26.618Z,11.69
2022-12-26T07:51:54.491Z,11.74
2022-12-26T07:54:22.837Z,11.82
2022-12-26T07:56:50.755Z,11.81
2022-12-26T07:59:19.007Z,11.87
2022-12-26T08:01:47.078Z,11.79
2022-12-26T08:04:16.632Z,11.74
2022-12-26T08:06:46.644Z,11.80
2022-12-26T08:09:16.262Z,11.82
2022-12-26T08:11:45.217Z,11.88
2022-12-26T08:14:16.976Z,11.82
2022-12-26T08:16:51.201Z,11.86
2022-12-26T08:19:21.350Z,11.81
2022-12-26T08:21:49.926Z,11.73
2022-12-26T08:24:18.125Z,11.78
2022-12-26T08:26:46.107Z,11.85
2022-12-26T08:29:15.530Z,11.86
2022-12-26T08:31:43.383Z,11.96
2022-12-26T08:34:11.787Z,11.97
2022-12-26T08:36:39.837Z,11.91
2022-12-26T08:39:08.695Z,11.82
2022-12-26T08:41:36.608Z,11.91
2022-12-26T08:46:52.867Z,11.98
2022-12-26T08:49:21.067Z,11.96
2022-12-26T08:51:49.457Z,11.96
2022-12-26T08:54:17.689Z,11.99
2022-12-26T08:56:45.548Z,11.88
2022-12-26T08:59:13.719Z,11.99
2022-12-26T09:01:41.720Z,11.88
2022-12-26T09:04:10.175Z,12.04
2022-12-26T09:06:39.932Z,12.09
2022-12-26T09:09:11.699Z,12.19
2022-12-26T09:11:41.312Z,12.16
2022-12-26T09:14:11.114Z,12.20
2022-12-26T09:16:49.246Z,12.14
2022-12-26T09:19:20.573Z,12.36
2022-12-26T09:22:10.500Z,12.33
2022-12-26T09:24:38.715Z,12.11
2022-12-26T09:27:06.787Z,12.15
2022-12-26T09:29:35.338Z,12.21
2022-12-26T09:32:03.145Z,12.26
2022-12-26T09:34:31.295Z,12.09
2022-12-26T09:36:59.145Z,12.24
2022-12-26T09:39:27.396Z,12.16
2022-12-26T09:42:32.395Z,12.40
2022-12-26T09:45:00.654Z,12.06
2022-12-26T09:47:33.080Z,12.36
2022-12-26T09:50:09.974Z,12.41
2022-12-26T09:52:58.472Z,12.33
2022-12-26T09:55:48.104Z,12.31
2022-12-26T09:58:21.456Z,12.57
2022-12-26T10:00:58.067Z,12.35
2022-12-26T10:03:26.138Z,12.39
2022-12-26T10:06:05.699Z,12.28
2022-12-26T10:08:53.535Z,12.27
2022-12-26T10:11:45.956Z,12.26
2022-12-26T10:14:47.766Z,12.31
2022-12-26T10:17:37.169Z,12.34
2022-12-26T10:20:08.178Z,12.43
2022-12-26T10:22:37.370Z,12.27
2022-12-26T10:25:34.188Z,12.31
2022-12-26T10:28:06.621Z,12.12
2022-12-26T10:30:39.860Z,12.10
2022-12-26T10:33:24.977Z,12.06
2022-12-26T10:35:53.284Z,11.98
2022-12-26T10:38:53.349Z,12.20
2022-12-26T10:41:27.874Z,12.48
2022-12-26T10:43:56.045Z,12.37
2022-12-26T10:46:54.935Z,12.24
2022-12-26T10:49:26.274Z,12.34
2022-12-26T10:51:57.656Z,12.09
2022-12-26T10:54:29.730Z,11.95
2022-12-26T10:56:59.416Z,12.34
2022-12-26T10:59:38.952Z,12.39
2022-12-26T11:02:28.518Z,12.68
2022-12-26T11:05:18.457Z,12.44
2022-12-26T11:08:14.745Z,12.38
2022-12-26T11:11:00.775Z,12.55
2022-12-26T11:13:35.162Z,12.59
2022-12-26T11:16:03.753Z,12.54
2022-12-26T11:18:31.653Z,12.63
2022-12-26T11:21:17.985Z,12.72
2022-12-26T11:23:47.365Z,12.91
2022-12-26T11:26:32.371Z,12.85
2022-12-26T11:29:25.260Z,12.72
2022-12-26T11:32:02.974Z,12.66
2022-12-26T11:34:47.798Z,12.56
2022-12-26T11:37:32.565Z,12.75
2022-12-26T11:40:01.938Z,12.86
2022-12-26T11:42:30.724Z,12.84
2022-12-26T11:45:04.074Z,12.49
2022-12-26T11:47:32.415Z,12.65
2022-12-26T11:50:04.652Z,12.71
2022-12-26T11:52:47.448Z,12.75
2022-12-26T11:55:33.725Z,12.69
2022-12-26T11:58:16.197Z,12.82
2022-12-26T12:01:07.523Z,13.03
2022-12-26T12:03:50.447Z,12.89
2022-12-26T12:06:44.146Z,12.84
2022-12-26T12:09:30.676Z,12.47
2022-12-26T12:12:23.164Z,12.36
2022-12-26T12:15:13.177Z,12.54
2022-12-26T12:17:43.729Z,12.55
2022-12-26T12:20:39.124Z,12.84
2022-12-26T12:23:37.755Z,12.37
2022-12-26T12:26:18.591Z,12.33
2022-12-26T12:29:14.307Z,12.34
2022-12-26T12:32:17.264Z,12.52
2022-12-26T12:34:47.687Z,11.93
2022-12-26T12:37:18.684Z,12.43
2022-12-26T12:40:24.124Z,12.40
2022-12-26T12:43:08.326Z,12.56
2022-12-26T12:45:56.544Z,12.26
2022-12-26T12:48:47.938Z,12.30
2022-12-26T12:51:44.405Z,12.01
2022-12-26T12:54:40.689Z,12.60
2022-12-26T12:57:50.665Z,12.43
2022-12-26T13:00:25.296Z,12.60
2022-12-26T13:03:22.522Z,12.56
2022-12-26T13:06:05.124Z,12.47
2022-12-26T13:08:42.139Z,12.34
2022-12-26T13:11:33.685Z,12.60
2022-12-26T13:14:07.663Z,12.72
2022-12-26T13:16:50.373Z,12.59
2022-12-26T13:19:48.695Z,12.77
2022-12-26T13:22:51.168Z,12.77
2022-12-26T13:25:20.546Z,12.74
2022-12-26T13:27:51.768Z,12.39
2022-12-26T13:30:19.814Z,12.55
2022-12-26T13:32:49.055Z,12.22
2022-12-26T13:35:50.755Z,12.48
2022-12-26T13:38:21.044Z,12.65
2022-12-26T13:41:20.864Z,12.49
2022-12-26T13:44:18.318Z,12.79
2022-12-26T13:46:46.059Z,12.34
2022-12-26T13:49:43.395Z,12.26
2022-12-26T13:52:11.249Z,12.26
2022-12-26T13:54:52.601Z,12.45
2022-12-26T13:57:45.120Z,12.37
2022-12-26T14:00:23.819Z,12.38
2022-12-26T14:03:19.047Z,12.51
2022-12-26T14:05:52.534Z,12.56
2022-12-26T14:08:38.580Z,12.70
2022-12-26T14:11:29.214Z,12.66
2022-12-26T14:14:10.083Z,12.09
2022-12-26T14:16:57.712Z,12.63
2022-12-26T14:19:49.870Z,12.52
2022-12-26T14:22:34.254Z,12.44
2022-12-26T14:25:20.664Z,12.50
2022-12-26T14:28:10.946Z,12.37
2022-12-26T14:31:12.637Z,12.39
2022-12-26T14:33:49.510Z,12.81
2022-12-26T14:37:07.204Z,12.61
2022-12-26T14:39:44.292Z,12.79
2022-12-26T14:42:42.477Z,12.43
2022-12-26T14:45:30.935Z,12.54
2022-12-26T14:47:59.257Z,12.42
2022-12-26T14:50:33.103Z,12.61
2022-12-26T14:53:28.251Z,12.49
2022-12-26T14:56:04.976Z,12.56
2022-12-26T14:58:43.951Z,12.24
2022-12-26T15:01:13.378Z,12.52
2022-12-26T15:03:56.341Z,12.65
2022-12-26T15:06:49.077Z,12.57
2022-12-26T15:09:40.508Z,12.33
2022-12-26T15:12:20.567Z,12.38
2022-12-26T15:15:06.695Z,12.40
2022-12-26T15:17:52.086Z,12.59
2022-12-26T15:20:53.643Z,12.22
2022-12-26T15:23:30.924Z,12.06
2022-12-26T15:26:07.647Z,12.15
2022-12-26T15:28:41.856Z,12.31
2022-12-26T15:31:21.887Z,12.26
2022-12-26T15:34:00.065Z,12.21
2022-12-26T15:36:49.211Z,12.04
2022-12-26T15:39:30.533Z,12.31
2022-12-26T15:42:30.755Z,12.09
2022-12-26T15:45:21.741Z,12.24
2022-12-26T15:48:11.292Z,11.94
2022-12-26T15:51:01.145Z,12.16
2022-12-26T15:54:06.233Z,12.38
2022-12-26T15:57:01.908Z,12.19
2022-12-26T15:59:32.436Z,12.39
2022-12-26T16:02:01.108Z,12.29
2022-12-26T16:04:52.919Z,11.97
2022-12-26T16:07:40.978Z,12.19
2022-12-26T16:10:26.954Z,12.33
2022-12-26T16:13:07.577Z,12.27
2022-12-26T16:15:49.401Z,12.31
2022-12-26T16:18:23.384Z,12.20
2022-12-26T16:21:12.365Z,12.25
2022-12-26T16:23:43.173Z,12.37
2022-12-26T16:26:25.542Z,12.48
2022-12-26T16:28:55.249Z,12.55
2022-12-26T16:31:31.360Z,12.44
2022-12-26T16:34:00.425Z,12.49
2022-12-26T16:36:32.742Z,12.46
2022-12-26T16:39:00.872Z,12.47
2022-12-26T16:41:31.763Z,12.48
2022-12-26T16:44:35.698Z,12.58
2022-12-26T16:47:12.200Z,12.45
2022-12-26T16:49:43.731Z,12.54
2022-12-26T16:52:47.395Z,12.27
2022-12-26T16:55:52.024Z,12.53
2022-12-26T16:58:22.079Z,12.26
2022-12-26T17:00:58.999Z,12.41
2022-12-26T17:03:34.881Z,12.27
2022-12-26T17:06:22.163Z,12.32
2022-12-26T17:08:52.031Z,12.29
2022-12-26T17:11:30.670Z,12.15
2022-12-26T17:14:00.344Z,12.35
2022-12-26T17:16:31.444Z,12.28
2022-12-26T17:19:20.102Z,12.31
2022-12-26T17:22:40.337Z,12.31
2022-12-26T17:25:26.767Z,12.35
2022-12-26T17:28:10.118Z,12.30
2022-12-26T17:30:53.517Z,12.50
2022-12-26T17:33:23.541Z,12.38
2022-12-26T17:39:25.840Z,12.51
2022-12-26T17:42:02.574Z,12.58
2022-12-26T17:44:45.512Z,12.27
2022-12-26T17:47:31.839Z,12.30
2022-12-26T17:50:00.066Z,12.43
2022-12-26T17:52:29.578Z,12.65
2022-12-26T17:54:58.992Z,12.58
2022-12-26T17:57:29.341Z,12.54
2022-12-26T17:59:58.368Z,12.42
2022-12-26T18:02:26.448Z,12.53
2022-12-26T18:04:54.644Z,12.43
2022-12-26T18:07:31.477Z,12.48
2022-12-26T18:10:01.605Z,12.43
2022-12-26T18:12:29.549Z,12.43
2022-12-26T18:15:02.012Z,12.28
2022-12-26T18:17:33.413Z,12.28
2022-12-26T18:20:03.557Z,12.41
2022-12-26T18:22:31.440Z,12.52
2022-12-26T18:24:59.607Z,12.43
2022-12-26T18:27:32.795Z,12.40
2022-12-26T18:30:01.015Z,12.40
2022-12-26T18:32:31.725Z,12.59
2022-12-26T18:35:00.181Z,12.66
2022-12-26T18:37:30.109Z,12.76
2022-12-26T18:39:58.406Z,12.55
2022-12-26T18:42:27.460Z,12.66
2022-12-26T18:44:55.579Z,12.73
2022-12-26T18:47:23.603Z,12.55
2022-12-26T18:49:51.802Z,12.60
2022-12-26T18:52:19.712Z,12.72
2022-12-26T18:54:47.822Z,12.76
2022-12-26T18:57:19.731Z,12.67
2022-12-26T18:59:48.543Z,12.56
2022-12-26T19:02:19.027Z,12.65
2022-12-26T19:04:48.817Z,12.79
2022-12-26T19:07:18.368Z,12.57
2022-12-26T19:09:50.759Z,12.66
2022-12-26T19:12:18.721Z,12.70
2022-12-26T19:14:48.759Z,12.67
2022-12-26T19:17:17.574Z,12.18
2022-12-26T19:19:45.715Z,12.48
2022-12-26T19:22:13.428Z,12.03
2022-12-26T19:24:42.615Z,12.11
2022-12-26T19:27:10.372Z,12.17
2022-12-26T19:29:38.542Z,11.91
2022-12-26T19:32:06.343Z,12.13
2022-12-26T19:34:34.537Z,12.12
2022-12-26T19:37:02.765Z,11.89
2022-12-26T19:39:30.870Z,11.85
2022-12-26T19:41:58.637Z,12.07
2022-12-26T19:44:30.915Z,12.20
2022-12-26T19:47:11.616Z,11.91
2022-12-26T19:49:41.803Z,12.01
2022-12-26T19:52:11.394Z,12.15
2022-12-26T19:54:39.819Z,12.24
2022-12-26T19:57:07.973Z,12.24
2022-12-26T19:59:36.473Z,12.04
2022-12-26T20:02:06.083Z,11.87
2022-12-26T20:04:34.447Z,12.03
2022-12-26T20:07:02.292Z,12.12
2022-12-26T20:09:32.606Z,11.97
2022-12-26T20:12:02.334Z,12.11
2022-12-26T20:14:32.976Z,12.05
2022-12-26T20:17:06.783Z,12.16
2022-12-26T20:19:35.987Z,12.06
2022-12-26T20:22:05.340Z,12.15
2022-12-26T20:24:34.352Z,12.23
2022-12-26T20:27:03.332Z,12.24
2022-12-26T20:29:31.845Z,12.04
2022-12-26T20:32:00.065Z,12.09
2022-12-26T20:34:29.736Z,12.21
2022-12-26T20:36:58.222Z,12.13
2022-12-26T20:39:27.581Z,12.06
2022-12-26T20:41:55.420Z,12.11
2022-12-26T20:44:24.707Z,11.90
2022-12-26T20:46:52.594Z,12.18
2022-12-26T20:49:21.020Z,12.27
2022-12-26T20:51:49.095Z,12.28
2022-12-26T20:54:17.618Z,12.22
2022-12-26T20:56:46.088Z,12.22
2022-12-26T20:59:15.244Z,12.33
2022-12-26T21:01:43.290Z,12.18
2022-12-26T21:04:18.782Z,12.15
2022-12-26T21:06:47.668Z,12.20
2022-12-26T21:09:16.607Z,12.05
2022-12-26T21:11:45.860Z,12.28
2022-12-26T21:14:18.674Z,12.25
2022-12-26T21:16:56.374Z,12.32
2022-12-26T21:19:26.945Z,12.24
2022-12-26T21:21:55.902Z,12.25
2022-12-26T21:24:31.314Z,12.19
2022-12-26T21:27:00.336Z,12.40
2022-12-26T21:29:31.613Z,12.29
2022-12-26T21:32:01.278Z,12.29
2022-12-26T21:34:31.802Z,12.38
2022-12-26T21:37:18.938Z,12.31
2022-12-26T21:39:49.874Z,12.27
2022-12-26T21:42:18.053Z,12.19
2022-12-26T21:44:48.013Z,12.22
2022-12-26T21:47:16.486Z,12.33
2022-12-26T21:49:44.540Z,12.25
2022-12-26T21:52:12.399Z,12.27
2022-12-26T21:54:59.009Z,12.25
2022-12-26T21:57:26.878Z,12.27
2022-12-26T21:59:58.281Z,12.24
2022-12-26T22:02:51.939Z,12.08
2022-12-26T22:05:24.191Z,12.22
2022-12-26T22:07:54.828Z,12.19
2022-12-26T22:10:47.654Z,12.27
2022-12-26T22:13:15.700Z,12.23
2022-12-26T22:16:03.568Z,12.19
2022-12-26T22:18:36.260Z,12.20
2022-12-26T22:21:19.983Z,12.15
2022-12-26T22:23:50.921Z,12.17
2022-12-26T22:26:21.351Z,11.97
2022-12-26T22:28:50.417Z,12.06
2022-12-26T22:31:28.883Z,12.20
2022-12-26T22:33:59.064Z,12.08
2022-12-26T22:36:28.912Z,12.09
2022-12-26T22:38:57.973Z,12.24
2022-12-26T22:41:27.344Z,12.29
2022-12-26T22:43:56.309Z,12.15
2022-12-26T22:46:25.602Z,11.92
2022-12-26T22:48:53.323Z,11.99
2022-12-26T22:51:24.207Z,11.93
2022-12-26T22:53:57.713Z,11.85
2022-12-26T22:56:25.802Z,11.87
2022-12-26T22:58:54.914Z,11.63
2022-12-26T23:01:24.273Z,11.84
2022-12-26T23:03:52.079Z,11.80
2022-12-26T23:06:24.583Z,11.69
2022-12-26T23:08:54.555Z,11.51
2022-12-26T23:11:28.774Z,11.56
2022-12-26T23:14:02.772Z,11.55
2022-12-26T23:16:45.376Z,11.46
2022-12-26T23:19:39.814Z,11.52
2022-12-26T23:22:08.204Z,11.52
2022-12-26T23:24:37.088Z,11.67
2022-12-26T23:27:26.614Z,11.78
2022-12-26T23:30:14.286Z,11.72
2022-12-26T23:32:44.803Z,11.96
2022-12-26T23:35:13.334Z,11.85
2022-12-26T23:37:42.424Z,11.86
2022-12-26T23:40:13.495Z,11.62
2022-12-26T23:42:42.155Z,11.79
2022-12-26T23:45:11.610Z,11.78
2022-12-26T23:47:43.066Z,11.65
2022-12-26T23:50:13.429Z,11.78
2022-12-26T23:52:42.284Z,11.87
2022-12-26T23:55:11.154Z,11.82
2022-12-26T23:57:40.723Z,11.77
